Time;durP1;ratioP1;P1;durP2;ratioP2;P2;SDS_P1;SDS_P2;PMS_P1;PMS_P2;Temp;Humidity;BMP_temperature;BMP_pressure;BME280_temperature;BME280_humidity;BME280_pressure;Samples;Min_cycle;Max_cycle;Signal;HPM_P1;HPM_P2
2022/11/30 00:00:16;;;;;;;146.57;88.15;;;102.90;2227.20;;;;;;5075686;28;20028;-82
2022/11/30 00:02:42;;;;;;;177.27;113.95;;;103.00;2227.20;;;;;;5076394;28;20111;-81
2022/11/30 00:05:08;;;;;;;171.60;107.32;;;103.00;2227.20;;;;;;5076964;28;20017;-81
2022/11/30 00:07:34;;;;;;;157.25;97.05;;;102.90;2227.20;;;;;;5075606;28;20494;-83
2022/11/30 00:10:00;;;;;;;145.35;92.13;;;103.00;2227.20;;;;;;5076706;28;20032;-83
2022/11/30 00:12:27;;;;;;;143.57;90.00;;;103.10;2227.20;;;;;;5075672;28;20024;-83
2022/11/30 00:14:53;;;;;;;137.88;87.88;;;103.10;2227.20;;;;;;5075558;28;20111;-83
2022/11/30 00:17:18;;;;;;;142.65;91.43;;;103.00;2227.20;;;;;;5076432;28;20521;-80
2022/11/30 00:19:44;;;;;;;134.43;83.57;;;103.00;2227.20;;;;;;5075327;28;20020;-83
2022/11/30 00:22:10;;;;;;;122.80;78.07;;;103.00;2227.20;;;;;;5075450;28;20056;-84
2022/11/30 00:24:36;;;;;;;120.80;75.32;;;103.00;2227.20;;;;;;5075452;28;20021;-84
2022/11/30 00:27:02;;;;;;;111.40;71.72;;;103.10;2227.20;;;;;;5075446;28;20074;-85
2022/11/30 00:29:28;;;;;;;128.60;76.97;;;103.10;2227.20;;;;;;5075150;28;20119;-84
2022/11/30 00:31:54;;;;;;;122.75;72.63;;;103.10;2227.20;;;;;;5075602;28;20030;-84
2022/11/30 00:34:19;;;;;;;135.07;80.47;;;103.10;2227.20;;;;;;5075282;28;20029;-83
2022/11/30 00:36:45;;;;;;;134.05;82.25;;;103.20;2227.20;;;;;;5075040;28;20478;-83
2022/11/30 00:39:11;;;;;;;130.25;80.35;;;103.20;2227.20;;;;;;5075224;28;20124;-84
2022/11/30 00:41:37;;;;;;;137.82;84.40;;;103.20;2227.20;;;;;;5074873;28;20128;-84
2022/11/30 00:44:03;;;;;;;173.52;106.45;;;103.30;2227.20;;;;;;5075695;28;20453;-84
2022/11/30 00:46:28;;;;;;;182.93;111.22;;;128.00;2252.80;;;;;;5095042;28;20031;-84
2022/11/30 00:48:54;;;;;;;181.10;110.55;;;128.00;2252.80;;;;;;5094662;28;20146;-85
2022/11/30 00:51:20;;;;;;;162.05;102.20;;;128.00;2252.80;;;;;;5094756;28;20028;-83
2022/11/30 00:53:46;;;;;;;114.90;73.63;;;103.30;2227.20;;;;;;5095220;28;20114;-84
2022/11/30 00:56:13;;;;;;;88.03;54.55;;;103.20;2227.20;;;;;;5095259;28;20035;-84
2022/11/30 00:58:39;;;;;;;88.40;51.78;;;103.20;2227.20;;;;;;5095082;28;20020;-84
2022/11/30 01:01:06;;;;;;;79.25;51.92;;;103.30;2227.20;;;;;;5095088;28;20081;-83
2022/11/30 01:03:32;;;;;;;108.55;65.72;;;128.30;2252.80;;;;;;5094976;28;20141;-83
2022/11/30 01:06:07;;;;;;;113.80;68.32;;;103.30;2227.20;;;;;;5094818;28;20114;-83
2022/11/30 01:08:33;;;;;;;117.68;68.40;;;128.00;2252.80;;;;;;5095131;28;20028;-84
2022/11/30 01:11:27;;;;;;;120.90;73.05;;;103.30;2227.20;;;;;;5094773;28;20028;-83
2022/11/30 01:13:54;;;;;;;61.00;37.45;;;103.30;2227.20;;;;;;5087525;28;20488;-83
2022/11/30 01:16:23;;;;;;;69.82;42.22;;;103.20;2227.20;;;;;;5108396;28;20029;-84
2022/11/30 01:18:50;;;;;;;71.03;42.92;;;103.10;2227.20;;;;;;5107046;28;20031;-83
2022/11/30 01:21:18;;;;;;;72.47;45.78;;;103.20;2227.20;;;;;;5108246;28;20024;-83
2022/11/30 01:23:45;;;;;;;77.05;48.03;;;103.20;2227.20;;;;;;5108066;28;20033;-83
2022/11/30 01:26:11;;;;;;;104.30;58.55;;;103.30;2227.20;;;;;;5074219;28;20375;-83
2022/11/30 01:28:37;;;;;;;102.18;61.75;;;103.30;2227.20;;;;;;5108233;28;20078;-83
2022/11/30 01:31:08;;;;;;;100.03;61.00;;;103.30;2227.20;;;;;;5094420;28;20123;-83
2022/11/30 01:33:34;;;;;;;99.60;61.72;;;128.00;2252.80;;;;;;5093694;28;20024;-83
2022/11/30 01:36:06;;;;;;;110.00;67.32;;;128.00;2252.80;;;;;;5094263;28;20028;-86
2022/11/30 01:38:34;;;;;;;109.63;63.38;;;103.30;2227.20;;;;;;5094512;28;20027;-85
2022/11/30 01:41:01;;;;;;;111.97;66.10;;;128.00;2252.80;;;;;;5093844;28;20479;-86
2022/11/30 01:43:51;;;;;;;105.18;62.60;;;128.00;2252.80;;;;;;5095416;28;20036;-86
2022/11/30 01:46:26;;;;;;;106.30;62.03;;;103.30;2227.20;;;;;;5094128;28;20079;-85
2022/11/30 01:49:10;;;;;;;104.28;63.63;;;103.30;2227.20;;;;;;5094411;28;20020;-85
2022/11/30 01:51:55;;;;;;;142.02;81.50;;;128.00;2252.80;;;;;;5094252;28;20115;-83
2022/11/30 01:54:28;;;;;;;132.90;77.88;;;103.30;2227.20;;;;;;5093839;28;20112;-86
2022/11/30 01:57:07;;;;;;;121.20;71.30;;;103.30;2227.20;;;;;;5094214;28;20047;-85
2022/11/30 01:59:33;;;;;;;87.13;53.53;;;103.30;2227.20;;;;;;5095870;28;20024;-85
2022/11/30 02:01:59;;;;;;;80.88;50.05;;;128.00;2252.80;;;;;;5093804;28;20028;-82
2022/11/30 02:04:30;;;;;;;68.82;43.10;;;128.00;2252.80;;;;;;5093733;28;20101;-86
2022/11/30 02:06:58;;;;;;;76.88;45.47;;;128.10;2252.80;;;;;;5093952;28;20049;-85
2022/11/30 02:09:25;;;;;;;86.28;53.42;;;128.20;2252.80;;;;;;5093436;28;20039;-85
2022/11/30 02:11:52;;;;;;;84.15;52.95;;;128.20;2252.80;;;;;;5093844;28;20043;-84
2022/11/30 02:14:41;;;;;;;90.47;56.45;;;128.20;2252.80;;;;;;5093488;28;20028;-85
2022/11/30 02:17:21;;;;;;;81.70;51.75;;;128.30;2252.80;;;;;;5093976;28;20016;-85
2022/11/30 02:20:16;;;;;;;70.47;46.80;;;128.20;2252.80;;;;;;5094882;28;20025;-86
2022/11/30 02:23:08;;;;;;;69.93;41.30;;;128.00;2252.80;;;;;;5093492;28;20488;-85
2022/11/30 02:26:03;;;;;;;68.10;43.80;;;103.30;2227.20;;;;;;5077580;28;20036;-85
2022/11/30 02:28:44;;;;;;;77.40;48.72;;;128.10;2252.80;;;;;;5093043;28;20020;-85
2022/11/30 02:31:14;;;;;;;83.53;51.00;;;128.10;2252.80;;;;;;5093757;28;20024;-85
2022/11/30 02:33:41;;;;;;;93.50;55.17;;;103.30;2227.20;;;;;;5093665;28;20417;-84
2022/11/30 02:36:09;;;;;;;83.63;52.47;;;128.00;2252.80;;;;;;5091798;28;20054;-85
2022/11/30 02:38:35;;;;;;;87.72;55.38;;;128.10;2252.80;;;;;;5093091;28;20138;-84
2022/11/30 02:41:02;;;;;;;99.68;59.55;;;128.20;2252.80;;;;;;5092153;28;20419;-85
2022/11/30 02:43:30;;;;;;;81.07;49.70;;;128.10;2252.80;;;;;;5093068;28;20107;-85
2022/11/30 02:46:26;;;;;;;67.97;42.78;;;128.10;2252.80;;;;;;5093115;28;20032;-84
2022/11/30 02:49:22;;;;;;;59.58;36.33;;;128.10;2252.80;;;;;;5093235;28;20024;-85
2022/11/30 02:51:49;;;;;;;60.90;37.30;;;128.10;2252.80;;;;;;5093273;28;20016;-85
2022/11/30 02:54:16;;;;;;;69.53;42.03;;;128.20;2252.80;;;;;;5093082;28;20046;-85
2022/11/30 02:56:42;;;;;;;66.93;39.45;;;128.10;2252.80;;;;;;5092943;28;20025;-85
2022/11/30 02:59:08;;;;;;;61.10;37.33;;;128.10;2252.80;;;;;;5093094;28;20049;-85
2022/11/30 03:01:34;;;;;;;62.58;36.80;;;103.30;2227.20;;;;;;5093175;28;20023;-85
2022/11/30 03:04:00;;;;;;;62.42;38.25;;;128.10;2252.80;;;;;;5094012;28;20067;-85
2022/11/30 03:06:26;;;;;;;57.85;35.65;;;128.10;2252.80;;;;;;5081940;28;20060;-85
2022/11/30 03:08:52;;;;;;;49.20;31.92;;;128.20;2252.80;;;;;;5072694;28;20067;-85
2022/11/30 03:11:17;;;;;;;48.42;28.55;;;128.10;2252.80;;;;;;5073054;28;20028;-85
2022/11/30 03:13:43;;;;;;;52.58;31.35;;;128.20;2252.80;;;;;;5072755;28;20130;-85
2022/11/30 03:16:12;;;;;;;81.38;48.67;;;128.20;2252.80;;;;;;5073589;28;20027;-85
2022/11/30 03:18:38;;;;;;;66.18;43.35;;;128.20;2252.80;;;;;;5072746;28;20115;-85
2022/11/30 03:21:06;;;;;;;64.25;41.00;;;128.20;2252.80;;;;;;5073703;28;20443;-84
2022/11/30 03:23:32;;;;;;;64.65;40.90;;;128.30;2252.80;;;;;;5072379;28;20028;-84
2022/11/30 03:25:58;;;;;;;59.63;35.63;;;128.20;2252.80;;;;;;5072306;28;20024;-85
2022/11/30 03:28:25;;;;;;;57.95;36.22;;;128.20;2252.80;;;;;;5072889;28;20031;-84
2022/11/30 03:30:51;;;;;;;50.00;30.75;;;128.20;2252.80;;;;;;5072756;28;20226;-84
2022/11/30 03:33:17;;;;;;;52.67;33.60;;;128.20;2252.80;;;;;;5073192;28;20097;-84
2022/11/30 03:35:43;;;;;;;66.28;41.17;;;128.30;2252.80;;;;;;5072432;28;20116;-84
2022/11/30 03:38:09;;;;;;;79.43;48.78;;;128.30;2252.80;;;;;;5072459;28;20032;-84
2022/11/30 03:40:38;;;;;;;72.72;47.45;;;128.30;2252.80;;;;;;5072395;28;20045;-86
2022/11/30 03:43:04;;;;;;;75.47;46.90;;;128.30;2252.80;;;;;;5072433;28;20119;-86
2022/11/30 03:45:30;;;;;;;77.05;50.08;;;128.30;2252.80;;;;;;5072074;28;20032;-85
2022/11/30 03:47:56;;;;;;;72.28;48.03;;;128.30;2252.80;;;;;;5072593;28;20028;-85
2022/11/30 03:50:21;;;;;;;68.45;45.58;;;128.30;2252.80;;;;;;5073379;28;20021;-85
2022/11/30 03:52:47;;;;;;;73.45;47.95;;;128.30;2252.80;;;;;;5072127;28;20025;-85
2022/11/30 03:55:13;;;;;;;74.53;47.65;;;128.40;2252.80;;;;;;5072181;28;20055;-86
2022/11/30 03:57:39;;;;;;;59.92;42.80;;;128.40;2252.80;;;;;;5072355;28;20460;-85
2022/11/30 04:00:06;;;;;;;56.30;38.92;;;128.40;2252.80;;;;;;5072037;28;20078;-85
2022/11/30 04:02:32;;;;;;;54.80;34.50;;;128.40;2252.80;;;;;;5072273;28;20483;-85
2022/11/30 04:04:58;;;;;;;52.00;33.53;;;128.40;2252.80;;;;;;5072079;28;20055;-85
2022/11/30 04:07:23;;;;;;;49.30;32.25;;;128.40;2252.80;;;;;;5072012;28;20136;-85
2022/11/30 04:09:49;;;;;;;62.67;40.10;;;128.40;2252.80;;;;;;5073394;28;20055;-83
2022/11/30 04:12:15;;;;;;;63.75;41.42;;;128.40;2252.80;;;;;;5072181;28;20036;-85
2022/11/30 04:14:41;;;;;;;57.15;37.22;;;128.40;2252.80;;;;;;5073121;28;20028;-82
2022/11/30 04:17:07;;;;;;;50.22;29.92;;;128.40;2252.80;;;;;;5072116;28;20029;-85
2022/11/30 04:19:32;;;;;;;47.97;31.48;;;128.20;2252.80;;;;;;5075777;28;20411;-85
2022/11/30 04:21:58;;;;;;;59.55;33.75;;;128.30;2252.80;;;;;;5075265;28;20024;-85
2022/11/30 04:24:24;;;;;;;58.50;34.20;;;128.30;2252.80;;;;;;5109773;28;20073;-85
2022/11/30 04:26:49;;;;;;;46.80;26.92;;;128.30;2252.80;;;;;;5075643;28;20032;-84
2022/11/30 04:29:15;;;;;;;38.28;25.05;;;128.30;2252.80;;;;;;5075395;28;20487;-85
2022/11/30 04:31:41;;;;;;;51.67;30.88;;;128.30;2252.80;;;;;;5075607;28;20025;-84
2022/11/30 04:34:07;;;;;;;56.60;31.50;;;128.30;2252.80;;;;;;5075226;28;20060;-84
2022/11/30 04:36:32;;;;;;;92.78;50.75;;;128.30;2252.80;;;;;;5082617;28;20395;-85
2022/11/30 04:38:58;;;;;;;149.48;85.57;;;128.30;2252.80;;;;;;5095817;28;20028;-84
2022/11/30 04:41:24;;;;;;;130.95;68.60;;;128.30;2252.80;;;;;;5094058;28;20051;-85
2022/11/30 04:43:50;;;;;;;116.93;64.10;;;128.20;2252.80;;;;;;5095491;28;20032;-84
2022/11/30 04:46:16;;;;;;;119.90;68.25;;;128.30;2252.80;;;;;;5096329;28;20031;-85
2022/11/30 04:48:41;;;;;;;110.90;61.22;;;128.30;1894.40;;;;;;5095201;28;20024;-85
2022/11/30 04:51:08;;;;;;;97.88;56.33;;;128.30;2252.80;;;;;;5095263;28;20111;-85
2022/11/30 04:53:35;;;;;;;93.80;57.13;;;128.30;2252.80;;;;;;5099009;28;20031;-84
2022/11/30 04:56:07;;;;;;;104.85;64.68;;;128.30;2252.80;;;;;;5120110;28;20019;-82
2022/11/30 04:58:33;;;;;;;85.78;56.22;;;128.30;2252.80;;;;;;5103322;28;20036;-84
2022/11/30 05:00:59;;;;;;;99.63;61.15;;;128.10;2252.80;;;;;;5096757;28;20154;-85
2022/11/30 05:03:24;;;;;;;98.97;57.80;;;128.20;2252.80;;;;;;5095269;28;20469;-85
2022/11/30 05:05:50;;;;;;;99.70;57.05;;;128.30;2252.80;;;;;;5090291;28;20032;-86
2022/11/30 05:08:16;;;;;;;90.10;56.88;;;128.30;2073.60;;;;;;5075110;28;20379;-85
2022/11/30 05:10:42;;;;;;;96.70;56.25;;;128.40;2252.80;;;;;;5074301;28;20051;-85
2022/11/30 05:13:08;;;;;;;90.25;53.03;;;128.40;2150.40;;;;;;5076055;28;20030;-85
2022/11/30 05:15:33;;;;;;;80.50;49.55;;;128.40;1868.80;;;;;;5076017;28;20098;-85
2022/11/30 05:18:00;;;;;;;75.82;47.55;;;128.30;2252.80;;;;;;5074611;28;20025;-86
2022/11/30 05:20:27;;;;;;;74.80;46.72;;;128.20;2252.80;;;;;;5074739;28;20021;-85
2022/11/30 05:22:53;;;;;;;70.78;47.00;;;128.20;2252.80;;;;;;5074514;28;20025;-85
2022/11/30 05:25:18;;;;;;;74.65;53.35;;;128.10;2073.60;;;;;;5075620;28;20102;-86
2022/11/30 05:27:44;;;;;;;73.30;49.50;;;128.10;2252.80;;;;;;5074485;28;20028;-86
2022/11/30 05:30:11;;;;;;;59.50;39.53;;;128.10;2124.80;;;;;;5073985;28;20133;-84
2022/11/30 05:32:36;;;;;;;55.88;37.85;;;128.10;2048.00;;;;;;5074346;28;20025;-85
2022/11/30 05:35:02;;;;;;;55.53;33.08;;;128.20;2252.80;;;;;;5075460;28;20077;-85
2022/11/30 05:37:28;;;;;;;52.20;33.28;;;128.30;2252.80;;;;;;5074279;28;20032;-85
2022/11/30 05:39:54;;;;;;;43.47;30.05;;;128.20;2252.80;;;;;;5074304;28;20049;-85
2022/11/30 05:42:20;;;;;;;42.10;27.60;;;128.20;2252.80;;;;;;5075058;28;20395;-85
2022/11/30 05:44:46;;;;;;;43.15;26.58;;;128.40;2252.80;;;;;;5074115;28;20031;-85
2022/11/30 05:47:12;;;;;;;48.65;30.33;;;128.30;2252.80;;;;;;5074219;28;20028;-85
2022/11/30 05:49:38;;;;;;;53.33;32.80;;;128.30;2252.80;;;;;;5074209;28;20107;-86
2022/11/30 05:52:04;;;;;;;66.63;45.75;;;128.30;2124.80;;;;;;5073975;28;20029;-85
2022/11/30 05:54:30;;;;;;;82.20;52.67;;;128.40;1868.80;;;;;;5075256;28;20025;-85
2022/11/30 05:56:55;;;;;;;106.72;63.70;;;128.40;2252.80;;;;;;5074046;28;20203;-85
2022/11/30 05:59:22;;;;;;;103.63;66.75;;;128.40;2022.40;;;;;;5073591;28;20024;-86
2022/11/30 06:01:48;;;;;;;105.35;59.80;;;128.40;2252.80;;;;;;5075188;28;20028;-85
2022/11/30 06:04:13;;;;;;;77.28;49.72;;;128.30;2252.80;;;;;;5074236;28;20537;-85
2022/11/30 06:06:39;;;;;;;107.82;57.95;;;128.30;2252.80;;;;;;5083310;28;20028;-85
2022/11/30 06:09:05;;;;;;;125.60;66.05;;;128.30;2252.80;;;;;;5095245;28;20444;-85
2022/11/30 06:11:31;;;;;;;114.97;62.75;;;128.40;2201.60;;;;;;5093536;28;20020;-85
2022/11/30 06:13:56;;;;;;;155.55;90.25;;;128.40;2252.80;;;;;;5093068;28;20071;-85
2022/11/30 06:16:22;;;;;;;130.20;77.60;;;128.30;2252.80;;;;;;5093932;28;20024;-85
2022/11/30 06:18:48;;;;;;;1071.22;520.67;;;128.30;2073.60;;;;;;5093476;28;20525;-85
2022/11/30 06:21:14;;;;;;;287.63;157.18;;;128.30;2252.80;;;;;;5093535;28;20028;-86
2022/11/30 06:23:39;;;;;;;168.90;95.30;;;128.30;2252.80;;;;;;5093882;28;20024;-85
2022/11/30 06:26:10;;;;;;;175.32;100.43;;;128.20;2048.00;;;;;;5093402;28;20035;-87
2022/11/30 06:28:37;;;;;;;229.15;132.20;;;128.30;2022.40;;;;;;5093653;28;20027;-85
2022/11/30 06:31:05;;;;;;;173.20;104.07;;;128.40;2252.80;;;;;;5093622;28;20020;-85
2022/11/30 06:33:32;;;;;;;92.57;57.65;;;128.40;1894.40;;;;;;5093403;28;20028;-84
2022/11/30 06:35:58;;;;;;;79.40;48.33;;;128.40;2124.80;;;;;;5093445;28;20028;-85
2022/11/30 06:38:24;;;;;;;74.95;48.05;;;128.40;2048.00;;;;;;5094501;28;20031;-84
2022/11/30 06:40:51;;;;;;;81.47;46.78;;;128.40;2252.80;;;;;;5092052;28;20050;-84
2022/11/30 06:43:17;;;;;;;151.90;79.63;;;128.30;1996.80;;;;;;5093616;28;20386;-85
2022/11/30 06:45:45;;;;;;;197.02;103.10;;;128.40;2252.80;;;;;;5093508;28;20032;-85
2022/11/30 06:48:11;;;;;;;163.57;87.93;;;128.40;2176.00;;;;;;5093323;28;20031;-86
2022/11/30 06:50:37;;;;;;;186.90;93.70;;;128.50;2227.20;;;;;;5093470;28;20027;-85
2022/11/30 06:53:03;;;;;;;189.13;96.93;;;128.60;2252.80;;;;;;5093408;28;20032;-85
2022/11/30 06:55:31;;;;;;;360.63;194.82;;;128.70;2252.80;;;;;;5093263;28;20074;-85
2022/11/30 06:58:08;;;;;;;253.68;141.02;;;128.80;2252.80;;;;;;5093340;28;20024;-85
2022/11/30 07:00:34;;;;;;;200.30;106.18;;;128.90;2252.80;;;;;;5093323;28;20107;-85
2022/11/30 07:03:01;;;;;;;159.65;95.85;;;153.60;2252.80;;;;;;5092892;28;20028;-85
2022/11/30 07:05:27;;;;;;;214.50;129.20;;;128.70;2252.80;;;;;;5093226;28;20028;-84
2022/11/30 07:07:53;;;;;;;211.65;131.98;;;153.60;2252.80;;;;;;5093889;28;20047;-85
2022/11/30 07:10:21;;;;;;;205.27;127.65;;;153.70;2252.80;;;;;;5093013;28;20379;-85
2022/11/30 07:12:47;;;;;;;201.60;126.18;;;153.80;2252.80;;;;;;5092941;28;20464;-85
2022/11/30 07:15:13;;;;;;;205.43;128.02;;;154.20;2252.80;;;;;;5093387;28;20032;-84
2022/11/30 07:17:39;;;;;;;199.60;127.00;;;153.80;2252.80;;;;;;5094475;28;20028;-84
2022/11/30 07:20:05;;;;;;;188.70;123.13;;;153.70;2252.80;;;;;;5093129;28;20038;-84
2022/11/30 07:22:31;;;;;;;179.18;116.15;;;153.80;2252.80;;;;;;5092516;28;20537;-85
2022/11/30 07:27:41;;;;;;;159.13;106.30;;;153.80;2252.80;;;;;;5093873;28;20047;-84
2022/11/30 07:30:08;;;;;;;150.00;95.82;;;153.90;2252.80;;;;;;5092502;28;20452;-84
2022/11/30 07:32:33;;;;;;;155.80;97.07;;;153.70;2252.80;;;;;;5092617;28;20118;-84
2022/11/30 07:34:59;;;;;;;152.38;100.63;;;154.00;2252.80;;;;;;5094846;28;20060;-83
2022/11/30 07:37:25;;;;;;;170.00;112.47;;;153.90;2252.80;;;;;;5099722;28;20031;-84
2022/11/30 07:39:51;;;;;;;103.03;64.03;;;153.90;2252.80;;;;;;5100086;28;20063;-83
2022/11/30 07:42:16;;;;;;;72.70;51.55;;;153.90;2252.80;;;;;;5101170;28;20028;-83
2022/11/30 07:44:42;;;;;;;84.45;52.88;;;154.00;2252.80;;;;;;5100536;28;20032;-83
2022/11/30 07:47:08;;;;;;;93.25;66.72;;;154.00;2252.80;;;;;;5100737;28;20027;-84
2022/11/30 07:49:34;;;;;;;84.13;63.00;;;154.00;2252.80;;;;;;5100179;28;20059;-85
2022/11/30 07:52:03;;;;;;;75.40;49.63;;;154.10;2252.80;;;;;;5099928;28;20028;-83
2022/11/30 07:54:28;;;;;;;73.05;49.45;;;154.20;2252.80;;;;;;5098797;28;20028;-85
2022/11/30 07:56:54;;;;;;;62.90;43.83;;;154.10;2252.80;;;;;;5096737;28;20034;-85
2022/11/30 07:59:20;;;;;;;58.22;40.05;;;154.10;2252.80;;;;;;5096118;28;20021;-84
2022/11/30 08:01:46;;;;;;;59.00;43.17;;;154.10;2252.80;;;;;;5096386;28;20478;-84
2022/11/30 08:04:12;;;;;;;52.22;36.00;;;154.10;2252.80;;;;;;5096228;28;20040;-84
2022/11/30 08:06:38;;;;;;;39.90;25.55;;;154.10;2252.80;;;;;;5096366;28;20383;-84
2022/11/30 08:09:04;;;;;;;45.80;29.83;;;154.10;2252.80;;;;;;5096428;28;20455;-85
2022/11/30 08:11:33;;;;;;;47.28;33.13;;;154.20;2252.80;;;;;;5096732;28;20031;-84
2022/11/30 08:14:00;;;;;;;44.33;31.20;;;154.30;2252.80;;;;;;5094949;28;20032;-84
2022/11/30 08:16:28;;;;;;;50.17;33.42;;;154.30;2252.80;;;;;;5095910;28;20028;-84
2022/11/30 08:18:56;;;;;;;68.18;40.85;;;154.40;2252.80;;;;;;5095723;28;20028;-85
2022/11/30 08:21:22;;;;;;;37.40;24.13;;;154.50;2252.80;;;;;;5096116;28;20390;-84
2022/11/30 08:23:51;;;;;;;32.75;19.92;;;154.50;2252.80;;;;;;5095783;28;20028;-84
2022/11/30 08:26:22;;;;;;;40.92;20.55;;;179.20;2252.80;;;;;;5095918;28;20028;-85
2022/11/30 08:28:49;;;;;;;42.15;25.00;;;179.20;2252.80;;;;;;5096024;28;20035;-84
2022/11/30 08:31:25;;;;;;;42.88;28.23;;;179.20;2252.80;;;;;;5096032;28;20051;-84
2022/11/30 08:34:00;;;;;;;43.95;28.15;;;179.30;2252.80;;;;;;5095940;28;20054;-84
2022/11/30 08:36:27;;;;;;;62.42;34.88;;;179.30;2252.80;;;;;;5089366;28;20028;-85
2022/11/30 08:38:55;;;;;;;59.92;30.25;;;179.40;2252.80;;;;;;5109192;28;20067;-85
2022/11/30 08:41:22;;;;;;;50.25;26.27;;;179.40;2252.80;;;;;;5075445;28;20044;-85
2022/11/30 08:43:49;;;;;;;38.65;22.75;;;179.40;2252.80;;;;;;5109453;28;20032;-85
2022/11/30 08:46:16;;;;;;;40.78;22.15;;;179.40;2252.80;;;;;;5109136;28;20075;-83
2022/11/30 08:48:43;;;;;;;38.13;22.85;;;179.40;2252.80;;;;;;5074823;28;20025;-84
2022/11/30 08:51:14;;;;;;;30.60;21.15;;;179.50;2252.80;;;;;;5109042;28;20024;-84
2022/11/30 08:53:40;;;;;;;30.60;18.88;;;179.50;2252.80;;;;;;5108888;28;20025;-84
2022/11/30 08:56:10;;;;;;;33.95;21.73;;;179.50;2252.80;;;;;;5109119;28;20027;-85
2022/11/30 08:58:37;;;;;;;40.72;24.95;;;179.50;2252.80;;;;;;5076221;28;20103;-85
2022/11/30 09:01:16;;;;;;;34.33;22.45;;;179.50;2252.80;;;;;;5108911;28;20452;-85
2022/11/30 09:03:43;;;;;;;60.30;38.28;;;179.60;2252.80;;;;;;5108244;28;20119;-85
2022/11/30 09:06:12;;;;;;;66.85;44.30;;;179.50;2252.80;;;;;;5108881;28;20036;-84
2022/11/30 09:08:39;;;;;;;65.78;40.67;;;179.60;2252.80;;;;;;5108514;28;20024;-82
2022/11/30 09:11:13;;;;;;;41.80;27.02;;;179.70;2252.80;;;;;;5108417;28;20025;-83
2022/11/30 09:13:40;;;;;;;41.50;26.00;;;179.70;2252.80;;;;;;5075003;28;20086;-87
2022/11/30 09:16:06;;;;;;;38.65;23.80;;;179.70;2252.80;;;;;;5108044;28;20029;-82
2022/11/30 09:18:32;;;;;;;72.30;27.10;;;179.70;2252.80;;;;;;5074518;28;20025;-83
2022/11/30 09:20:59;;;;;;;80.57;43.42;;;179.70;2252.80;;;;;;5074172;28;20081;-83
2022/11/30 09:23:26;;;;;;;47.33;30.30;;;179.70;2252.80;;;;;;5108038;28;20035;-82
2022/11/30 09:25:59;;;;;;;53.15;27.17;;;179.70;2252.80;;;;;;5108170;28;20376;-83
2022/11/30 09:28:26;;;;;;;68.95;43.53;;;179.70;2252.80;;;;;;5108142;28;20114;-81
2022/11/30 09:30:52;;;;;;;49.08;33.75;;;179.80;2252.80;;;;;;5075907;28;20033;-86
2022/11/30 09:33:19;;;;;;;40.72;25.50;;;179.80;2252.80;;;;;;5108189;28;20029;-82
2022/11/30 09:35:53;;;;;;;36.00;26.02;;;180.10;2252.80;;;;;;5107637;28;20380;-84
2022/11/30 09:38:19;;;;;;;33.08;24.10;;;179.80;2252.80;;;;;;5107747;28;20387;-80
2022/11/30 09:40:47;;;;;;;39.58;27.80;;;179.80;2252.80;;;;;;5107849;28;20045;-82
2022/11/30 09:43:51;;;;;;;45.15;28.08;;;179.80;2252.80;;;;;;5107679;28;20033;-80
2022/11/30 09:46:20;;;;;;;26.60;18.95;;;179.90;2252.80;;;;;;5107863;28;20032;-80
2022/11/30 09:49:01;;;;;;;33.97;20.98;;;179.80;2252.80;;;;;;5107665;28;20059;-83
2022/11/30 09:51:34;;;;;;;52.53;35.60;;;179.90;2252.80;;;;;;5074689;28;20025;-79
2022/11/30 09:54:07;;;;;;;36.47;26.83;;;179.90;2252.80;;;;;;5075138;28;20024;-82
2022/11/30 09:56:37;;;;;;;47.53;30.70;;;179.90;2252.80;;;;;;5107279;28;20028;-81
2022/11/30 09:59:28;;;;;;;43.80;25.50;;;179.90;2252.80;;;;;;5121228;27;20038;-81
2022/11/30 10:01:55;;;;;;;40.63;26.63;;;179.90;2252.80;;;;;;5093976;28;20032;-84
2022/11/30 10:04:26;;;;;;;34.95;22.33;;;179.90;2252.80;;;;;;5093404;28;20034;-81
2022/11/30 10:07:25;;;;;;;35.10;22.33;;;179.90;2252.80;;;;;;5093854;28;20104;-82
2022/11/30 10:10:17;;;;;;;37.00;23.88;;;179.90;2252.80;;;;;;5093849;28;20016;-82
2022/11/30 10:13:12;;;;;;;35.50;24.23;;;180.00;2252.80;;;;;;5093571;28;20032;-81
2022/11/30 10:16:21;;;;;;;54.47;38.60;;;180.00;2252.80;;;;;;5093474;28;20024;-82
2022/11/30 10:19:05;;;;;;;38.63;24.90;;;180.00;2252.80;;;;;;4995905;28;20032;-82
2022/11/30 10:22:27;;;;;;;41.10;27.40;;;180.00;2252.80;;;;;;5091170;28;20036;-82
2022/11/30 10:25:22;;;;;;;29.35;18.35;;;180.10;2252.80;;;;;;4996374;28;20041;-83
2022/11/30 10:27:53;;;;;;;35.42;21.65;;;180.10;2252.80;;;;;;5012897;28;20130;-83
2022/11/30 10:30:24;;;;;;;37.60;21.48;;;180.10;2252.80;;;;;;5075781;28;20039;-83
2022/11/30 10:32:56;;;;;;;29.08;20.50;;;180.10;2252.80;;;;;;5093351;28;20176;-81
2022/11/30 10:35:43;;;;;;;29.58;19.40;;;180.10;2252.80;;;;;;5093095;28;20487;-79
2022/11/30 10:38:23;;;;;;;50.08;33.55;;;204.80;2252.80;;;;;;5094069;28;20106;-82
2022/11/30 10:40:49;;;;;;;45.10;29.17;;;204.80;2252.80;;;;;;5095437;28;20048;-83
2022/11/30 10:43:37;;;;;;;36.70;24.38;;;204.80;2252.80;;;;;;5093252;28;20050;-83
2022/11/30 10:46:04;;;;;;;27.50;17.77;;;204.90;2252.80;;;;;;5108286;28;20176;-84
2022/11/30 10:48:30;;;;;;;36.65;22.75;;;204.80;2252.80;;;;;;5111331;28;20023;-82
2022/11/30 10:50:57;;;;;;;27.70;17.55;;;204.90;2252.80;;;;;;5092819;28;20028;-82
2022/11/30 10:53:23;;;;;;;32.80;22.85;;;204.90;2252.80;;;;;;5094019;28;20028;-83
2022/11/30 10:55:58;;;;;;;89.55;58.97;;;205.00;2252.80;;;;;;5093102;28;20028;-84
2022/11/30 10:58:37;;;;;;;33.47;23.48;;;205.00;2252.80;;;;;;5094636;28;20020;-83
2022/11/30 11:01:05;;;;;;;30.38;17.77;;;205.00;2252.80;;;;;;5092658;28;20024;-85
2022/11/30 11:03:31;;;;;;;25.63;17.13;;;205.00;2252.80;;;;;;5093144;28;20051;-82
2022/11/30 11:06:22;;;;;;;25.80;17.92;;;204.90;2252.80;;;;;;5093104;28;20115;-83
2022/11/30 11:08:49;;;;;;;18.25;12.32;;;205.00;2252.80;;;;;;5094242;28;20059;-82
2022/11/30 11:11:37;;;;;;;21.15;14.38;;;205.00;2252.80;;;;;;5092779;28;20028;-81
2022/11/30 11:14:21;;;;;;;50.42;31.05;;;205.00;2252.80;;;;;;5093664;28;20036;-82
2022/11/30 11:16:52;;;;;;;44.17;30.67;;;205.10;2252.80;;;;;;5092748;28;20024;-82
2022/11/30 11:19:42;;;;;;;48.72;31.67;;;205.10;2252.80;;;;;;5092756;28;20055;-83
2022/11/30 11:22:28;;;;;;;51.35;28.88;;;205.10;2252.80;;;;;;5093013;28;20040;-81
2022/11/30 11:25:31;;;;;;;29.20;20.55;;;205.10;2252.80;;;;;;5093128;28;20178;-82
2022/11/30 11:28:07;;;;;;;37.30;25.55;;;205.20;2252.80;;;;;;5064856;28;20056;-83
2022/11/30 11:30:35;;;;;;;26.52;17.58;;;205.30;2252.80;;;;;;5097135;28;20028;-82
2022/11/30 11:33:07;;;;;;;25.00;15.30;;;205.20;2252.80;;;;;;5096897;28;20417;-82
2022/11/30 11:35:42;;;;;;;19.52;13.15;;;205.30;2252.80;;;;;;5094054;28;21851;-81
2022/11/30 11:38:28;;;;;;;27.92;20.20;;;205.30;2252.80;;;;;;5076696;28;20085;-83
2022/11/30 11:41:05;;;;;;;36.80;20.45;;;205.30;2252.80;;;;;;5092209;28;20077;-81
2022/11/30 11:44:08;;;;;;;33.90;23.67;;;205.20;2252.80;;;;;;5076074;28;20043;-81
2022/11/30 11:46:52;;;;;;;26.90;18.08;;;205.20;2252.80;;;;;;5074909;28;20155;-82
2022/11/30 11:49:23;;;;;;;33.38;20.23;;;205.20;2252.80;;;;;;5073030;28;20050;-83
2022/11/30 11:52:03;;;;;;;33.80;22.23;;;205.20;2252.80;;;;;;5075590;28;20426;-82
2022/11/30 11:55:02;;;;;;;35.55;21.98;;;205.30;2252.80;;;;;;5074285;28;20464;-82
2022/11/30 11:57:57;;;;;;;28.80;18.45;;;205.20;2252.80;;;;;;5075163;28;20138;-82
2022/11/30 12:00:26;;;;;;;21.58;15.55;;;205.30;2252.80;;;;;;5075738;28;20460;-81
2022/11/30 12:03:05;;;;;;;36.95;24.95;;;205.20;2252.80;;;;;;5076781;28;20167;-82
2022/11/30 12:05:39;;;;;;;27.15;18.33;;;205.30;2252.80;;;;;;5075782;28;20035;-82
2022/11/30 12:08:30;;;;;;;33.15;20.77;;;205.30;2252.80;;;;;;5075814;28;20028;-84
2022/11/30 12:11:19;;;;;;;30.90;22.17;;;205.30;2252.80;;;;;;5074342;28;20449;-82
2022/11/30 12:13:46;;;;;;;31.88;21.73;;;205.30;2252.80;;;;;;5091757;28;20395;-83